createdAt,value
2023-03-28T00:00:19.757Z,5.75
2023-03-28T00:02:52.618Z,5.69
2023-03-28T00:05:25.522Z,5.67
2023-03-28T00:08:00.282Z,5.66
2023-03-28T00:10:33.248Z,5.68
2023-03-28T00:13:06.179Z,5.72
2023-03-28T00:15:40.342Z,5.76
2023-03-28T00:18:13.355Z,5.80
2023-03-28T00:20:46.085Z,5.84
2023-03-28T00:23:20.528Z,5.89
2023-03-28T00:25:53.252Z,5.95
2023-03-28T00:28:26.187Z,5.99
2023-03-28T00:31:03.228Z,6.04
2023-03-28T00:33:36.198Z,6.06
2023-03-28T00:36:10.364Z,6.07
2023-03-28T00:38:44.725Z,6.09
2023-03-28T00:41:18.573Z,6.12
2023-03-28T00:43:52.527Z,6.13
2023-03-28T00:46:27.801Z,6.13
2023-03-28T00:49:03.594Z,6.14
2023-03-28T00:51:38.407Z,6.14
2023-03-28T00:54:14.480Z,6.14
2023-03-28T00:56:49.018Z,6.13
2023-03-28T00:59:23.958Z,6.09
2023-03-28T01:01:56.853Z,6.06
2023-03-28T01:04:36.382Z,6.04
2023-03-28T01:07:09.212Z,6.01
2023-03-28T01:09:43.605Z,5.96
2023-03-28T01:12:16.914Z,5.91
2023-03-28T01:14:49.985Z,5.90
2023-03-28T01:17:22.860Z,5.88
2023-03-28T01:20:04.202Z,5.90
2023-03-28T01:22:56.961Z,5.89
2023-03-28T01:25:52.379Z,5.91
2023-03-28T01:28:34.209Z,5.93
2023-03-28T01:31:22.704Z,5.97
2023-03-28T01:34:16.449Z,5.99
2023-03-28T01:37:01.702Z,6.04
2023-03-28T01:39:42.403Z,6.07
2023-03-28T01:42:21.450Z,6.15
2023-03-28T01:44:59.677Z,6.19
2023-03-28T01:47:36.828Z,6.24
2023-03-28T01:50:13.962Z,6.28
2023-03-28T01:52:51.273Z,6.37
2023-03-28T01:55:25.464Z,6.43
2023-03-28T01:58:03.335Z,6.49
2023-03-28T02:00:38.566Z,6.55
2023-03-28T02:03:15.176Z,6.59
2023-03-28T02:05:49.973Z,6.66
2023-03-28T02:08:26.355Z,6.72
2023-03-28T02:10:59.830Z,6.77
2023-03-28T02:13:34.824Z,6.80
2023-03-28T02:16:09.155Z,6.84
2023-03-28T02:18:44.920Z,6.89
2023-03-28T02:21:19.818Z,6.95
2023-03-28T02:23:55.056Z,6.99
2023-03-28T02:26:28.410Z,7.02
2023-03-28T02:29:01.590Z,7.05
2023-03-28T02:31:35.109Z,7.09
2023-03-28T02:34:08.077Z,7.11
2023-03-28T02:36:47.852Z,7.15
2023-03-28T02:39:30.150Z,7.15
2023-03-28T02:42:08.365Z,7.17
2023-03-28T02:44:59.948Z,7.20
2023-03-28T02:47:35.361Z,7.21
2023-03-28T02:50:18.941Z,7.23
2023-03-28T02:52:56.036Z,7.23
2023-03-28T02:55:34.469Z,7.24
2023-03-28T02:58:10.447Z,7.23
2023-03-28T03:00:43.567Z,7.23
2023-03-28T03:03:17.564Z,7.20
2023-03-28T03:05:50.259Z,7.16
2023-03-28T03:08:22.987Z,7.13
2023-03-28T03:10:57.191Z,7.13
2023-03-28T03:13:29.993Z,7.10
2023-03-28T03:16:03.459Z,7.08
2023-03-28T03:18:37.040Z,7.07
2023-03-28T03:21:10.949Z,7.04
2023-03-28T03:23:44.002Z,7.00
2023-03-28T03:26:18.329Z,6.98
2023-03-28T03:28:51.160Z,6.96
2023-03-28T03:31:24.485Z,6.96
2023-03-28T03:33:57.274Z,6.94
2023-03-28T03:36:31.997Z,6.90
2023-03-28T03:39:04.790Z,6.90
2023-03-28T03:41:39.107Z,6.87
2023-03-28T03:44:11.818Z,6.79
2023-03-28T03:46:44.848Z,6.71
2023-03-28T03:49:17.584Z,6.65
2023-03-28T03:51:50.310Z,6.53
2023-03-28T03:54:23.212Z,6.41
2023-03-28T03:56:57.467Z,6.30
2023-03-28T03:59:30.266Z,6.19
2023-03-28T04:02:03.351Z,6.06
2023-03-28T04:04:37.103Z,5.95
2023-03-28T04:07:09.938Z,5.82
2023-03-28T04:09:42.712Z,5.72
2023-03-28T04:12:17.257Z,5.59
2023-03-28T04:14:49.993Z,5.48
2023-03-28T04:17:23.553Z,5.38
2023-03-28T04:19:56.269Z,5.28
2023-03-28T04:22:30.087Z,5.19
2023-03-28T04:25:03.077Z,5.10
2023-03-28T04:27:37.367Z,5.01
2023-03-28T04:30:11.577Z,4.92
2023-03-28T04:32:44.664Z,4.84
2023-03-28T04:35:17.666Z,4.77
2023-03-28T04:37:50.534Z,4.71
2023-03-28T04:40:24.738Z,4.62
2023-03-28T04:42:59.095Z,4.57
2023-03-28T04:45:31.887Z,4.48
2023-03-28T04:48:04.844Z,4.41
2023-03-28T04:50:37.676Z,4.34
2023-03-28T04:53:10.932Z,4.29
2023-03-28T04:55:49.087Z,4.23
2023-03-28T04:58:24.521Z,4.17
2023-03-28T05:00:57.366Z,4.12
2023-03-28T05:03:30.247Z,4.09
2023-03-28T05:06:03.111Z,4.04
2023-03-28T05:08:36.199Z,3.99
2023-03-28T05:11:08.984Z,3.94
2023-03-28T05:13:43.332Z,3.90
2023-03-28T05:16:16.052Z,3.88
2023-03-28T05:18:48.896Z,3.83
2023-03-28T05:21:21.703Z,3.78
2023-03-28T05:23:54.486Z,3.76
2023-03-28T05:26:28.298Z,3.73
2023-03-28T05:29:02.501Z,3.71
2023-03-28T05:31:35.292Z,3.68
2023-03-28T05:34:08.396Z,3.65
2023-03-28T05:36:41.101Z,3.64
2023-03-28T05:39:15.020Z,3.63
2023-03-28T05:41:48.084Z,3.61
2023-03-28T05:44:22.299Z,3.61
2023-03-28T05:46:55.520Z,3.61
2023-03-28T05:49:28.403Z,3.60
2023-03-28T05:52:01.238Z,3.60
2023-03-28T05:54:34.168Z,3.62
2023-03-28T05:57:06.956Z,3.63
2023-03-28T05:59:45.486Z,3.64
2023-03-28T06:02:19.114Z,3.65
2023-03-28T06:04:53.989Z,3.65
2023-03-28T06:07:39.329Z,3.69
2023-03-28T06:10:15.729Z,3.77
2023-03-28T06:12:48.375Z,3.83
2023-03-28T06:15:23.147Z,3.91
2023-03-28T06:17:56.217Z,4.01
2023-03-28T06:20:29.173Z,4.11
2023-03-28T06:23:04.037Z,4.22
2023-03-28T06:25:38.717Z,4.34
2023-03-28T06:28:11.761Z,4.47
2023-03-28T06:30:48.579Z,4.59
2023-03-28T06:33:21.399Z,4.73
2023-03-28T06:35:55.404Z,4.85
2023-03-28T06:38:28.275Z,4.99
2023-03-28T06:41:01.294Z,5.11
2023-03-28T06:43:34.158Z,5.25
2023-03-28T06:46:09.618Z,5.37
2023-03-28T06:48:42.325Z,5.51
2023-03-28T06:51:15.351Z,5.63
2023-03-28T06:53:48.467Z,5.77
2023-03-28T06:56:21.250Z,5.92
2023-03-28T06:58:54.090Z,6.04
2023-03-28T07:01:28.282Z,6.18
2023-03-28T07:04:02.241Z,6.32
2023-03-28T07:06:35.523Z,6.46
2023-03-28T07:09:08.341Z,6.58
2023-03-28T07:11:41.349Z,6.70
2023-03-28T07:14:14.430Z,6.85
2023-03-28T07:16:48.672Z,6.98
2023-03-28T07:19:22.426Z,7.12
2023-03-28T07:21:55.274Z,7.25
2023-03-28T07:24:27.992Z,7.38
2023-03-28T07:27:14.120Z,7.51
2023-03-28T07:29:48.909Z,7.63
2023-03-28T07:32:23.673Z,7.74
2023-03-28T07:34:56.565Z,7.84
2023-03-28T07:37:29.371Z,7.93
2023-03-28T07:40:02.263Z,8.04
2023-03-28T07:42:35.050Z,8.14
2023-03-28T07:45:08.435Z,8.24
2023-03-28T07:47:42.951Z,8.36
2023-03-28T07:50:15.870Z,8.47
2023-03-28T07:52:48.952Z,8.59
2023-03-28T07:55:21.956Z,8.71
2023-03-28T07:57:55.684Z,8.83
2023-03-28T08:00:28.404Z,8.95
2023-03-28T08:03:02.650Z,9.11
2023-03-28T08:05:37.862Z,9.24
2023-03-28T08:08:10.826Z,9.40
2023-03-28T08:10:45.650Z,9.56
2023-03-28T08:13:18.687Z,9.74
2023-03-28T08:15:53.697Z,9.90
2023-03-28T08:18:29.712Z,10.04
2023-03-28T08:21:05.111Z,10.17
2023-03-28T08:23:37.952Z,10.31
2023-03-28T08:26:10.731Z,10.39
2023-03-28T08:28:43.599Z,10.49
2023-03-28T08:31:17.368Z,10.60
2023-03-28T08:33:52.656Z,10.68
2023-03-28T08:36:27.209Z,10.77
2023-03-28T08:39:01.843Z,10.86
2023-03-28T08:41:47.049Z,10.94
2023-03-28T08:44:28.782Z,11.03
2023-03-28T08:47:04.869Z,11.10
2023-03-28T08:49:44.003Z,11.16
2023-03-28T08:52:18.773Z,11.22
2023-03-28T08:54:54.371Z,11.27
2023-03-28T08:57:29.404Z,11.32
2023-03-28T09:00:09.062Z,11.34
2023-03-28T09:02:42.355Z,11.38
2023-03-28T09:05:23.844Z,11.37
2023-03-28T09:08:01.094Z,11.33
2023-03-28T09:10:38.735Z,11.31
2023-03-28T09:13:17.641Z,11.25
2023-03-28T09:16:09.134Z,11.15
2023-03-28T09:19:03.689Z,11.06
2023-03-28T09:21:42.339Z,10.96
2023-03-28T09:24:22.920Z,10.91
2023-03-28T09:26:58.623Z,10.87
2023-03-28T09:29:32.768Z,10.85
2023-03-28T09:32:07.104Z,10.86
2023-03-28T09:34:40.877Z,10.88
2023-03-28T09:37:19.041Z,10.90
2023-03-28T09:39:53.843Z,10.95
2023-03-28T09:42:31.480Z,10.98
2023-03-28T09:45:08.914Z,11.00
2023-03-28T09:47:43.237Z,11.02
2023-03-28T09:50:17.265Z,11.04
2023-03-28T09:52:52.121Z,11.07
2023-03-28T09:55:26.038Z,11.10
2023-03-28T09:58:03.032Z,11.11
2023-03-28T10:00:36.660Z,11.14
2023-03-28T10:03:23.055Z,11.16
2023-03-28T10:05:56.205Z,11.23
2023-03-28T10:08:32.946Z,11.21
2023-03-28T10:11:07.076Z,11.25
2023-03-28T10:13:41.725Z,11.26
2023-03-28T10:16:15.741Z,11.27
2023-03-28T10:18:48.612Z,11.25
2023-03-28T10:21:23.267Z,11.25
2023-03-28T10:24:00.990Z,11.24
2023-03-28T10:26:33.935Z,11.23
2023-03-28T10:29:08.399Z,11.23
2023-03-28T10:31:41.988Z,11.23
2023-03-28T10:34:25.859Z,11.21
2023-03-28T10:36:58.599Z,11.17
2023-03-28T10:39:33.675Z,11.14
2023-03-28T10:42:06.389Z,11.13
2023-03-28T10:44:40.696Z,11.13
2023-03-28T10:47:16.035Z,11.11
2023-03-28T10:49:50.097Z,11.10
2023-03-28T10:52:25.393Z,11.12
2023-03-28T10:55:03.635Z,11.14
2023-03-28T10:57:41.526Z,11.18
2023-03-28T11:00:17.387Z,11.19
2023-03-28T11:02:53.263Z,11.21
2023-03-28T11:05:34.585Z,11.24
2023-03-28T11:08:19.400Z,11.27
2023-03-28T11:10:58.155Z,11.30
2023-03-28T11:13:34.912Z,11.37
2023-03-28T11:16:12.625Z,11.39
2023-03-28T11:18:54.128Z,11.41
2023-03-28T11:21:31.239Z,11.46
2023-03-28T11:24:11.204Z,11.48
2023-03-28T11:26:52.955Z,11.53
2023-03-28T11:29:42.576Z,11.54
2023-03-28T11:32:19.380Z,11.60
2023-03-28T11:34:59.337Z,11.64
2023-03-28T11:37:35.275Z,11.69
2023-03-28T11:40:15.465Z,11.81
2023-03-28T11:42:51.775Z,11.91
2023-03-28T11:45:42.028Z,12.02
2023-03-28T11:48:22.802Z,12.18
2023-03-28T11:50:59.943Z,12.36
2023-03-28T11:53:34.924Z,12.52
2023-03-28T11:56:12.488Z,12.72
2023-03-28T11:58:48.757Z,12.87
2023-03-28T12:01:22.982Z,13.02
2023-03-28T12:04:02.076Z,13.16
2023-03-28T12:06:37.447Z,13.33
2023-03-28T12:09:14.247Z,13.47
2023-03-28T12:11:52.217Z,13.57
2023-03-28T12:14:31.934Z,13.66
2023-03-28T12:19:42.878Z,13.76
2023-03-28T12:22:19.674Z,13.79
2023-03-28T12:24:58.132Z,13.79
2023-03-28T12:27:39.037Z,13.75
2023-03-28T12:30:21.394Z,13.71
2023-03-28T12:32:59.759Z,13.60
2023-03-28T12:35:36.608Z,13.50
2023-03-28T12:38:20.070Z,13.39
2023-03-28T12:40:55.524Z,13.29
2023-03-28T12:43:30.036Z,13.19
2023-03-28T12:46:07.473Z,13.13
2023-03-28T12:48:42.125Z,13.06
2023-03-28T12:51:16.830Z,13.04
2023-03-28T12:54:01.633Z,13.05
2023-03-28T12:56:34.629Z,13.08
2023-03-28T12:59:36.641Z,13.13
2023-03-28T13:02:15.117Z,13.21
2023-03-28T13:04:53.366Z,13.33
2023-03-28T13:07:29.882Z,13.44
2023-03-28T13:10:06.402Z,13.56
2023-03-28T13:12:48.432Z,13.67
2023-03-28T13:15:29.198Z,13.80
2023-03-28T13:18:21.379Z,13.86
2023-03-28T13:20:56.696Z,13.94
2023-03-28T13:23:34.547Z,14.03
2023-03-28T13:26:07.966Z,14.10
2023-03-28T13:28:44.457Z,14.22
2023-03-28T13:31:21.599Z,14.29
2023-03-28T13:33:55.375Z,14.38
2023-03-28T13:36:31.857Z,14.48
2023-03-28T13:39:09.485Z,14.59
2023-03-28T13:41:56.117Z,14.67
2023-03-28T13:44:32.208Z,14.75
2023-03-28T13:47:05.880Z,14.85
2023-03-28T13:49:44.348Z,14.92
2023-03-28T13:52:19.963Z,14.99
2023-03-28T13:54:55.124Z,15.06
2023-03-28T13:57:28.294Z,15.12
2023-03-28T14:00:02.598Z,15.14
2023-03-28T14:02:38.017Z,15.13
2023-03-28T14:05:15.492Z,15.14
2023-03-28T14:07:50.300Z,15.15
2023-03-28T14:10:28.958Z,15.12
2023-03-28T14:13:03.792Z,15.16
2023-03-28T14:15:39.470Z,15.16
2023-03-28T14:18:15.798Z,15.21
2023-03-28T14:20:48.704Z,15.23
2023-03-28T14:23:28.474Z,15.24
2023-03-28T14:26:01.749Z,15.28
2023-03-28T14:28:34.590Z,15.29
2023-03-28T14:31:07.621Z,15.27
2023-03-28T14:33:41.948Z,15.24
2023-03-28T14:36:21.160Z,15.18
2023-03-28T14:38:55.247Z,15.09
2023-03-28T14:41:29.939Z,14.97
2023-03-28T14:44:04.145Z,14.83
2023-03-28T14:46:36.923Z,14.69
2023-03-28T14:49:14.783Z,14.55
2023-03-28T14:51:48.704Z,14.39
2023-03-28T14:54:24.968Z,14.27
2023-03-28T14:56:59.137Z,14.15
2023-03-28T14:59:37.146Z,14.02
2023-03-28T15:02:17.064Z,13.90
2023-03-28T15:04:51.238Z,13.77
2023-03-28T15:07:28.137Z,13.64
2023-03-28T15:10:11.003Z,13.52
2023-03-28T15:12:46.494Z,13.39
2023-03-28T15:15:21.781Z,13.28
2023-03-28T15:17:56.563Z,13.16
2023-03-28T15:20:31.984Z,13.07
2023-03-28T15:23:06.961Z,12.99
2023-03-28T15:25:41.302Z,12.95
2023-03-28T15:28:16.372Z,12.90
2023-03-28T15:30:50.894Z,12.86
2023-03-28T15:33:25.000Z,12.82
2023-03-28T15:36:05.825Z,12.79
2023-03-28T15:38:39.469Z,12.78
2023-03-28T15:41:21.758Z,12.75
2023-03-28T15:43:58.785Z,12.76
2023-03-28T15:46:32.528Z,12.76
2023-03-28T15:49:06.978Z,12.77
2023-03-28T15:51:49.869Z,12.77
2023-03-28T15:54:31.497Z,12.76
2023-03-28T15:57:07.377Z,12.72
2023-03-28T15:59:42.637Z,12.68
2023-03-28T16:02:35.285Z,12.64
2023-03-28T16:05:11.746Z,12.58
2023-03-28T16:07:48.764Z,12.53
2023-03-28T16:10:23.093Z,12.47
2023-03-28T16:12:57.607Z,12.42
2023-03-28T16:15:31.541Z,12.37
2023-03-28T16:18:04.301Z,12.32
2023-03-28T16:20:37.289Z,12.28
2023-03-28T16:23:11.116Z,12.24
2023-03-28T16:25:44.104Z,12.19
2023-03-28T16:28:19.337Z,12.15
2023-03-28T16:30:53.336Z,12.13
2023-03-28T16:33:26.087Z,12.10
2023-03-28T16:35:59.520Z,12.07
2023-03-28T16:38:32.449Z,12.03
2023-03-28T16:41:05.838Z,11.99
2023-03-28T16:43:40.469Z,11.95
2023-03-28T16:46:13.229Z,11.89
2023-03-28T16:48:45.932Z,11.86
2023-03-28T16:51:18.767Z,11.81
2023-03-28T16:53:51.526Z,11.79
2023-03-28T16:56:26.962Z,11.77
2023-03-28T16:59:01.044Z,11.77
2023-03-28T17:01:33.820Z,11.77
2023-03-28T17:04:06.990Z,11.79
2023-03-28T17:06:39.739Z,11.78
2023-03-28T17:09:12.496Z,11.82
2023-03-28T17:11:45.289Z,11.84
2023-03-28T17:14:19.366Z,11.86
2023-03-28T17:16:52.135Z,11.87
2023-03-28T17:19:24.800Z,11.87
2023-03-28T17:21:57.927Z,11.86
2023-03-28T17:24:31.466Z,11.83
2023-03-28T17:27:04.363Z,11.80
2023-03-28T17:29:38.721Z,11.77
2023-03-28T17:32:11.742Z,11.76
2023-03-28T17:34:44.567Z,11.72
2023-03-28T17:37:17.469Z,11.71
2023-03-28T17:39:50.198Z,11.69
2023-03-28T17:42:23.221Z,11.67
2023-03-28T17:44:58.421Z,11.66
2023-03-28T17:47:31.620Z,11.66
2023-03-28T17:50:04.683Z,11.66
2023-03-28T17:52:37.874Z,11.65
2023-03-28T17:55:10.801Z,11.63
2023-03-28T17:57:43.530Z,11.63
2023-03-28T18:00:18.321Z,11.63
2023-03-28T18:02:51.834Z,11.62
2023-03-28T18:05:24.622Z,11.60
2023-03-28T18:07:57.388Z,11.59
2023-03-28T18:10:30.122Z,11.60
2023-03-28T18:13:02.818Z,11.57
2023-03-28T18:15:40.789Z,11.55
2023-03-28T18:18:13.930Z,11.54
2023-03-28T18:20:46.882Z,11.50
2023-03-28T18:23:19.767Z,11.49
2023-03-28T18:25:53.198Z,11.49
2023-03-28T18:28:26.328Z,11.47
2023-03-28T18:31:08.844Z,11.45
2023-03-28T18:33:43.008Z,11.45
2023-03-28T18:36:15.806Z,11.42
2023-03-28T18:38:48.559Z,11.41
2023-03-28T18:41:22.364Z,11.40
2023-03-28T18:43:55.723Z,11.37
2023-03-28T18:46:30.443Z,11.37
2023-03-28T18:49:03.319Z,11.33
2023-03-28T18:51:36.677Z,11.31
2023-03-28T18:54:09.354Z,11.28
2023-03-28T18:56:42.187Z,11.26
2023-03-28T18:59:15.067Z,11.23
2023-03-28T19:01:51.575Z,11.21
2023-03-28T19:04:26.045Z,11.21
2023-03-28T19:06:58.829Z,11.17
2023-03-28T19:09:31.559Z,11.16
2023-03-28T19:12:04.282Z,11.14
2023-03-28T19:14:37.138Z,11.13
2023-03-28T19:17:11.297Z,11.13
2023-03-28T19:19:44.060Z,11.14
2023-03-28T19:22:16.721Z,11.12
2023-03-28T19:24:49.484Z,11.12
2023-03-28T19:27:22.166Z,11.11
2023-03-28T19:29:54.860Z,11.10
2023-03-28T19:32:30.639Z,11.07
2023-03-28T19:35:03.811Z,11.07
2023-03-28T19:37:36.789Z,11.08
2023-03-28T19:40:10.920Z,11.05
2023-03-28T19:42:44.202Z,11.05
2023-03-28T19:45:17.382Z,11.05
2023-03-28T19:47:51.843Z,11.05
2023-03-28T19:50:24.674Z,11.06
2023-03-28T19:52:57.373Z,11.05
2023-03-28T19:55:30.169Z,11.06
2023-03-28T19:58:04.948Z,11.05
2023-03-28T20:00:37.643Z,11.07
2023-03-28T20:03:11.728Z,11.05
2023-03-28T20:05:44.617Z,11.03
2023-03-28T20:08:18.364Z,11.03
2023-03-28T20:10:52.775Z,11.02
2023-03-28T20:13:25.742Z,11.01
2023-03-28T20:15:58.563Z,11.01
2023-03-28T20:18:33.608Z,11.00
2023-03-28T20:21:07.573Z,11.00
2023-03-28T20:23:40.406Z,11.00
2023-03-28T20:26:14.473Z,10.98
2023-03-28T20:28:50.081Z,10.96
2023-03-28T20:31:23.729Z,10.99
2023-03-28T20:33:57.759Z,10.96
2023-03-28T20:36:32.933Z,10.95
2023-03-28T20:39:06.100Z,10.96
2023-03-28T20:41:39.036Z,10.97
2023-03-28T20:44:15.184Z,10.97
2023-03-28T20:46:48.987Z,10.98
2023-03-28T20:49:23.110Z,10.95
2023-03-28T20:51:55.948Z,10.96
2023-03-28T20:54:28.714Z,10.95
2023-03-28T20:57:01.747Z,10.95
2023-03-28T20:59:34.762Z,10.93
2023-03-28T21:02:08.195Z,10.94
2023-03-28T21:04:43.379Z,10.91
2023-03-28T21:07:16.046Z,10.91
2023-03-28T21:09:48.794Z,10.90
2023-03-28T21:12:21.554Z,10.89
2023-03-28T21:14:55.429Z,10.88
2023-03-28T21:17:29.152Z,10.87
2023-03-28T21:20:05.415Z,10.86
2023-03-28T21:22:38.944Z,10.88
2023-03-28T21:25:12.004Z,10.85
2023-03-28T21:27:44.817Z,10.85
2023-03-28T21:30:18.930Z,10.87
2023-03-28T21:32:51.644Z,10.86
2023-03-28T21:35:25.819Z,10.86
2023-03-28T21:37:58.497Z,10.86
2023-03-28T21:40:31.194Z,10.88
2023-03-28T21:43:04.200Z,10.89
2023-03-28T21:45:37.238Z,10.91
2023-03-28T21:48:09.953Z,10.96
2023-03-28T21:50:49.614Z,10.96
2023-03-28T21:53:22.738Z,11.01
2023-03-28T21:55:56.347Z,11.01
2023-03-28T21:58:30.354Z,11.04
2023-03-28T22:01:04.042Z,11.07
2023-03-28T22:03:38.114Z,11.10
2023-03-28T22:06:12.288Z,11.11
2023-03-28T22:08:46.425Z,11.14
2023-03-28T22:11:20.150Z,11.18
2023-03-28T22:14:01.113Z,11.20
2023-03-28T22:16:34.989Z,11.23
2023-03-28T22:19:10.009Z,11.27
2023-03-28T22:21:44.590Z,11.30
2023-03-28T22:24:17.912Z,11.33
2023-03-28T22:26:50.717Z,11.36
2023-03-28T22:29:23.456Z,11.38
2023-03-28T22:31:56.858Z,11.39
2023-03-28T22:34:30.430Z,11.42
2023-03-28T22:37:04.550Z,11.45
2023-03-28T22:39:38.033Z,11.48
2023-03-28T22:42:11.823Z,11.49
2023-03-28T22:44:44.604Z,11.52
2023-03-28T22:47:18.085Z,11.54
2023-03-28T22:49:53.919Z,11.56
2023-03-28T22:52:31.635Z,11.57
2023-03-28T22:55:04.556Z,11.60
2023-03-28T22:57:37.561Z,11.63
2023-03-28T23:00:11.369Z,11.65
2023-03-28T23:02:44.079Z,11.67
2023-03-28T23:05:16.955Z,11.69
2023-03-28T23:07:52.790Z,11.70
2023-03-28T23:10:25.798Z,11.72
2023-03-28T23:12:58.591Z,11.75
2023-03-28T23:15:31.389Z,11.75
2023-03-28T23:18:04.628Z,11.76
2023-03-28T23:20:38.371Z,11.77
2023-03-28T23:23:12.766Z,11.77
2023-03-28T23:25:47.557Z,11.78
2023-03-28T23:28:20.441Z,11.78
2023-03-28T23:30:53.495Z,11.80
2023-03-28T23:33:26.219Z,11.78
2023-03-28T23:35:59.022Z,11.81
2023-03-28T23:38:33.134Z,11.80
2023-03-28T23:41:06.793Z,11.83
2023-03-28T23:43:39.573Z,11.83
2023-03-28T23:46:12.365Z,11.81
2023-03-28T23:48:45.264Z,11.84
2023-03-28T23:51:18.611Z,11.83
2023-03-28T23:53:52.770Z,11.82
2023-03-28T23:56:25.573Z,11.84
2023-03-28T23:58:58.341Z,11.85
